Time;durP1;ratioP1;P1;durP2;ratioP2;P2;SDS_P1;SDS_P2;PMS_P1;PMS_P2;Temp;Humidity;BMP_temperature;BMP_pressure;BME280_temperature;BME280_humidity;BME280_pressure;Samples;Min_cycle;Max_cycle;Signal;HPM_P1;HPM_P2
2022/09/29 00:00:23;;;;;;;;;;;18.20;99.90;;;;;;5094423;28;19916;-72
2022/09/29 00:02:50;;;;;;;;;;;18.30;99.90;;;;;;5113319;28;20360;-72
2022/09/29 00:05:16;;;;;;;;;;;18.20;99.90;;;;;;5095573;28;20553;-71
2022/09/29 00:07:43;;;;;;;;;;;18.20;99.90;;;;;;5105410;28;19956;-71
2022/09/29 00:10:10;;;;;;;;;;;18.10;99.90;;;;;;5092961;28;19919;-72
2022/09/29 00:12:37;;;;;;;;;;;18.10;99.90;;;;;;5093423;28;19951;-72
2022/09/29 00:15:04;;;;;;;;;;;18.10;99.90;;;;;;5107969;28;20039;-71
2022/09/29 00:17:30;;;;;;;;;;;18.10;99.90;;;;;;5109927;28;20360;-71
2022/09/29 00:19:58;;;;;;;;;;;18.00;99.90;;;;;;5092871;28;19918;-72
2022/09/29 00:22:24;;;;;;;;;;;18.00;99.90;;;;;;5074814;28;19965;-70
2022/09/29 00:24:51;;;;;;;;;;;17.90;99.90;;;;;;5100560;28;20003;-71
2022/09/29 00:27:18;;;;;;;;;;;17.90;99.90;;;;;;5100982;28;19913;-72
2022/09/29 00:29:45;;;;;;;;;;;17.90;99.90;;;;;;5097248;28;20265;-72
2022/09/29 00:32:12;;;;;;;;;;;17.80;99.90;;;;;;5110559;28;19963;-71
2022/09/29 00:34:39;;;;;;;;;;;17.70;99.90;;;;;;5102311;27;19920;-71
2022/09/29 00:37:05;;;;;;;;;;;17.70;99.90;;;;;;5096345;28;19943;-72
2022/09/29 00:39:32;;;;;;;;;;;17.60;99.90;;;;;;5097020;28;20367;-71
2022/09/29 00:41:59;;;;;;;;;;;17.60;99.90;;;;;;5099524;28;19923;-72
2022/09/29 00:44:43;;;;;;;;;;;17.60;99.90;;;;;;5105476;28;19990;-71
2022/09/29 00:47:14;;;;;;;;;;;17.60;99.90;;;;;;5111331;28;19938;-71
2022/09/29 00:49:50;;;;;;;;;;;17.60;99.90;;;;;;5110172;28;19908;-70
2022/09/29 00:52:17;;;;;;;;;;;17.70;99.90;;;;;;5082135;28;20275;-71
2022/09/29 00:54:54;;;;;;;;;;;17.70;99.90;;;;;;5096140;28;19964;-70
2022/09/29 00:57:24;;;;;;;;;;;17.80;99.90;;;;;;5106674;28;19916;-72
2022/09/29 00:59:54;;;;;;;;;;;17.90;99.90;;;;;;5104463;28;20000;-72
2022/09/29 01:02:21;;;;;;;;;;;17.90;99.90;;;;;;5100221;28;20330;-72
2022/09/29 01:04:48;;;;;;;;;;;18.00;99.90;;;;;;5104514;28;19963;-72
2022/09/29 01:07:15;;;;;;;;;;;18.10;99.90;;;;;;5107095;28;19912;-71
2022/09/29 01:09:42;;;;;;;;;;;18.40;99.90;;;;;;5105371;28;19912;-70
2022/09/29 01:12:09;;;;;;;;;;;18.60;99.90;;;;;;5103299;28;19974;-72
2022/09/29 01:14:37;;;;;;;;;;;18.80;99.90;;;;;;5102007;28;19919;-72
2022/09/29 01:17:04;;;;;;;;;;;19.00;99.90;;;;;;5111313;28;19912;-72
2022/09/29 01:19:49;;;;;;;;;;;19.10;99.90;;;;;;5110621;28;20368;-70
2022/09/29 01:22:34;;;;;;;;;;;19.20;99.90;;;;;;5096247;28;20326;-71
2022/09/29 01:25:06;;;;;;;;;;;19.30;99.90;;;;;;5091310;28;19908;-70
2022/09/29 01:27:42;;;;;;;;;;;19.50;99.90;;;;;;5102566;28;19957;-74
2022/09/29 01:30:14;;;;;;;;;;;19.70;99.90;;;;;;5111051;28;19915;-72
2022/09/29 01:32:58;;;;;;;;;;;19.80;99.90;;;;;;5109887;28;19916;-72
2022/09/29 01:35:31;;;;;;;;;;;19.90;99.90;;;;;;5105913;28;20536;-73
2022/09/29 01:38:06;;;;;;;;;;;20.00;99.90;;;;;;5110848;28;19954;-73
2022/09/29 01:40:41;;;;;;;;;;;20.10;99.90;;;;;;5092065;28;20012;-72
2022/09/29 01:43:10;;;;;;;;;;;20.20;99.90;;;;;;5105491;28;19924;-70
2022/09/29 01:45:43;;;;;;;;;;;20.30;99.90;;;;;;5093851;28;20011;-71
2022/09/29 01:48:22;;;;;;;;;;;20.40;99.90;;;;;;5108519;28;19983;-70
2022/09/29 01:50:52;;;;;;;;;;;20.40;99.90;;;;;;5109401;28;19912;-71
2022/09/29 01:53:20;;;;;;;;;;;20.50;99.90;;;;;;5111543;28;20367;-72
2022/09/29 01:55:50;;;;;;;;;;;20.70;99.90;;;;;;5111035;28;20007;-70
2022/09/29 01:58:20;;;;;;;;;;;20.60;99.90;;;;;;5106692;28;20010;-71
2022/09/29 02:00:50;;;;;;;;;;;20.30;99.90;;;;;;5105204;28;19920;-70
2022/09/29 02:03:29;;;;;;;;;;;20.00;99.90;;;;;;5089788;28;21335;-71
2022/09/29 02:05:58;;;;;;;;;;;19.80;99.90;;;;;;5106830;28;19918;-72
2022/09/29 02:08:31;;;;;;;;;;;19.70;99.90;;;;;;5110148;28;19908;-69
2022/09/29 02:11:08;;;;;;;;;;;19.70;99.90;;;;;;5092795;28;19959;-72
2022/09/29 02:13:39;;;;;;;;;;;20.00;99.90;;;;;;5108079;28;19920;-71
2022/09/29 02:16:09;;;;;;;;;;;20.30;99.90;;;;;;5090500;28;19909;-72
2022/09/29 02:18:40;;;;;;;;;;;20.50;99.90;;;;;;5105509;28;19914;-73
2022/09/29 02:21:07;;;;;;;;;;;20.60;99.90;;;;;;5095546;28;19908;-73
2022/09/29 02:23:34;;;;;;;;;;;20.70;99.90;;;;;;5107929;28;20373;-73
2022/09/29 02:26:02;;;;;;;;;;;20.70;99.90;;;;;;5090735;28;20416;-70
2022/09/29 02:28:28;;;;;;;;;;;20.80;99.90;;;;;;5106353;28;20359;-72
2022/09/29 02:30:55;;;;;;;;;;;20.90;99.90;;;;;;5093628;28;19912;-71
2022/09/29 02:33:23;;;;;;;;;;;21.30;99.90;;;;;;5108565;28;19954;-71
2022/09/29 02:35:50;;;;;;;;;;;21.50;99.90;;;;;;5091942;28;19963;-72
2022/09/29 02:38:24;;;;;;;;;;;21.70;99.90;;;;;;5109250;28;19912;-71
2022/09/29 02:41:13;;;;;;;;;;;21.80;99.90;;;;;;5092347;28;19919;-73
2022/09/29 02:43:40;;;;;;;;;;;22.10;99.90;;;;;;5098515;28;19952;-71
2022/09/29 02:46:25;;;;;;;;;;;22.60;99.90;;;;;;5093155;28;20362;-71
2022/09/29 02:49:09;;;;;;;;;;;22.80;98.70;;;;;;5089896;28;19982;-70
2022/09/29 02:51:38;;;;;;;;;;;23.00;98.20;;;;;;5098533;28;20619;-70
2022/09/29 02:54:17;;;;;;;;;;;23.30;97.80;;;;;;5103773;28;20044;-71
2022/09/29 02:56:46;;;;;;;;;;;23.40;97.50;;;;;;5095698;28;19981;-72
2022/09/29 02:59:17;;;;;;;;;;;24.00;97.40;;;;;;5105759;28;19908;-72
2022/09/29 03:01:51;;;;;;;;;;;24.30;96.70;;;;;;5113283;28;19947;-72
2022/09/29 03:04:18;;;;;;;;;;;24.40;94.40;;;;;;5114570;28;20011;-71
2022/09/29 03:06:45;;;;;;;;;;;24.60;94.20;;;;;;5112688;28;19908;-71
2022/09/29 03:09:12;;;;;;;;;;;24.80;93.90;;;;;;5104364;28;19918;-71
2022/09/29 03:11:38;;;;;;;;;;;25.20;93.80;;;;;;5109786;28;20410;-72
2022/09/29 03:14:08;;;;;;;;;;;25.60;93.00;;;;;;5110329;28;20373;-72
2022/09/29 03:16:35;;;;;;;;;;;25.10;92.80;;;;;;5112115;28;19987;-73
2022/09/29 03:19:04;;;;;;;;;;;25.10;93.30;;;;;;5110878;28;20310;-72
2022/09/29 03:21:31;;;;;;;;;;;25.40;93.20;;;;;;5093657;28;20274;-72
2022/09/29 03:23:58;;;;;;;;;;;25.70;92.40;;;;;;5113566;28;19955;-72
2022/09/29 03:26:25;;;;;;;;;;;25.80;92.50;;;;;;5113528;28;19908;-73
2022/09/29 03:28:52;;;;;;;;;;;25.60;92.40;;;;;;5114080;28;19960;-72
2022/09/29 03:31:18;;;;;;;;;;;25.30;92.40;;;;;;5103678;28;19912;-71
2022/09/29 03:33:45;;;;;;;;;;;25.20;92.80;;;;;;5092623;28;19965;-70
2022/09/29 03:36:12;;;;;;;;;;;25.40;91.90;;;;;;5092269;28;20007;-73
2022/09/29 03:38:39;;;;;;;;;;;26.00;91.80;;;;;;5093687;28;20430;-72
2022/09/29 03:41:06;;;;;;;;;;;26.60;90.60;;;;;;5088950;28;19965;-71
2022/09/29 03:43:32;;;;;;;;;;;26.10;90.60;;;;;;5094439;28;19916;-71
2022/09/29 03:45:59;;;;;;;;;;;25.70;91.10;;;;;;5112245;28;19934;-69
2022/09/29 03:48:30;;;;;;;;;;;24.70;91.70;;;;;;5112782;28;19915;-72
2022/09/29 03:50:57;;;;;;;;;;;23.80;92.70;;;;;;5095436;28;19908;-72
2022/09/29 03:53:23;;;;;;;;;;;23.30;93.70;;;;;;5103948;28;19912;-71
2022/09/29 03:55:50;;;;;;;;;;;22.80;94.80;;;;;;5103505;28;19942;-72
2022/09/29 03:58:17;;;;;;;;;;;22.40;95.60;;;;;;5113263;28;19911;-69
2022/09/29 04:00:45;;;;;;;;;;;22.10;96.50;;;;;;5112543;28;20047;-70
2022/09/29 04:03:11;;;;;;;;;;;21.50;99.90;;;;;;5107672;28;20403;-71
2022/09/29 04:05:39;;;;;;;;;;;20.80;99.90;;;;;;5109951;28;19919;-70
2022/09/29 04:08:06;;;;;;;;;;;20.90;99.90;;;;;;5108782;28;19930;-71
2022/09/29 04:10:36;;;;;;;;;;;20.90;99.90;;;;;;5103702;28;19969;-72
2022/09/29 04:13:03;;;;;;;;;;;21.10;99.90;;;;;;5103749;28;19912;-72
2022/09/29 04:15:30;;;;;;;;;;;21.20;99.90;;;;;;5093232;28;20003;-72
2022/09/29 04:17:57;;;;;;;;;;;21.70;99.90;;;;;;5108750;28;19912;-71
2022/09/29 04:20:24;;;;;;;;;;;22.30;99.90;;;;;;5101258;28;19969;-70
2022/09/29 04:22:51;;;;;;;;;;;22.60;99.90;;;;;;5095447;28;19923;-70
2022/09/29 04:25:17;;;;;;;;;;;23.00;99.90;;;;;;5095853;28;19912;-71
2022/09/29 04:27:44;;;;;;;;;;;23.60;99.50;;;;;;5111326;28;19916;-70
2022/09/29 04:30:11;;;;;;;;;;;23.80;98.30;;;;;;5112563;28;19915;-72
2022/09/29 04:32:38;;;;;;;;;;;23.10;98.80;;;;;;5093793;28;20287;-71
2022/09/29 04:35:05;;;;;;;;;;;22.10;99.90;;;;;;5111507;28;19923;-71
2022/09/29 04:37:31;;;;;;;;;;;21.30;99.90;;;;;;5112246;28;19913;-71
2022/09/29 04:39:58;;;;;;;;;;;20.70;99.90;;;;;;5108718;28;19969;-72
2022/09/29 04:42:24;;;;;;;;;;;20.20;99.90;;;;;;5112831;28;19916;-71
2022/09/29 04:44:51;;;;;;;;;;;20.10;99.90;;;;;;5093092;28;19923;-73
2022/09/29 04:47:18;;;;;;;;;;;20.40;99.90;;;;;;5102168;28;19908;-72
2022/09/29 04:49:44;;;;;;;;;;;20.50;99.90;;;;;;5112283;28;19911;-72
2022/09/29 04:52:12;;;;;;;;;;;20.30;99.90;;;;;;5112738;28;19912;-70
2022/09/29 04:54:39;;;;;;;;;;;20.00;99.90;;;;;;5100103;28;19923;-71
2022/09/29 04:57:06;;;;;;;;;;;19.60;99.90;;;;;;5099207;28;19931;-72
2022/09/29 04:59:34;;;;;;;;;;;19.40;99.90;;;;;;5112176;28;19915;-70
2022/09/29 05:02:01;;;;;;;;;;;19.50;99.90;;;;;;5111301;28;19927;-70
2022/09/29 05:04:27;;;;;;;;;;;19.40;99.90;;;;;;5101166;28;19912;-72
2022/09/29 05:06:54;;;;;;;;;;;19.20;99.90;;;;;;5109781;28;19968;-72
2022/09/29 05:09:21;;;;;;;;;;;19.00;99.90;;;;;;5112081;28;19912;-71
2022/09/29 05:11:47;;;;;;;;;;;18.80;99.90;;;;;;5112746;28;20362;-70
2022/09/29 05:14:14;;;;;;;;;;;18.70;99.90;;;;;;5103057;28;19912;-69
2022/09/29 05:16:40;;;;;;;;;;;18.40;99.90;;;;;;5103069;28;19908;-70
2022/09/29 05:19:07;;;;;;;;;;;18.30;99.90;;;;;;5110683;28;19908;-71
2022/09/29 05:21:34;;;;;;;;;;;18.10;99.90;;;;;;5112357;28;19908;-72
2022/09/29 05:24:01;;;;;;;;;;;18.40;99.90;;;;;;5105194;28;19912;-71
2022/09/29 05:26:27;;;;;;;;;;;19.10;99.90;;;;;;5092877;28;19915;-71
2022/09/29 05:28:54;;;;;;;;;;;19.80;99.90;;;;;;5091824;28;19908;-70
2022/09/29 05:31:20;;;;;;;;;;;20.40;99.90;;;;;;5109886;28;20044;-69
2022/09/29 05:33:47;;;;;;;;;;;21.10;99.90;;;;;;5109018;28;20402;-72
2022/09/29 05:36:14;;;;;;;;;;;21.70;99.90;;;;;;5102406;28;19912;-71
2022/09/29 05:38:41;;;;;;;;;;;21.80;99.90;;;;;;5108100;28;19995;-73
2022/09/29 05:41:11;;;;;;;;;;;21.70;99.90;;;;;;5110057;28;19912;-71
2022/09/29 05:43:38;;;;;;;;;;;21.50;99.90;;;;;;5104521;28;19924;-71
2022/09/29 05:46:07;;;;;;;;;;;21.20;99.90;;;;;;5106645;28;19911;-72
2022/09/29 05:48:34;;;;;;;;;;;21.00;99.90;;;;;;5107620;28;19912;-70
2022/09/29 05:51:06;;;;;;;;;;;21.20;99.90;;;;;;5105529;28;19912;-70
2022/09/29 05:53:33;;;;;;;;;;;21.60;99.90;;;;;;5099225;28;19912;-70
2022/09/29 05:56:03;;;;;;;;;;;21.80;99.90;;;;;;5104717;28;19912;-71
2022/09/29 05:58:30;;;;;;;;;;;22.00;99.90;;;;;;5092556;28;20020;-70
2022/09/29 06:00:57;;;;;;;;;;;22.30;99.90;;;;;;5109323;28;19920;-71
2022/09/29 06:03:23;;;;;;;;;;;22.70;99.90;;;;;;5108516;28;19919;-70
2022/09/29 06:05:50;;;;;;;;;;;22.50;99.90;;;;;;5079369;28;19916;-70
2022/09/29 06:08:17;;;;;;;;;;;22.20;99.90;;;;;;5110350;28;19907;-71
2022/09/29 06:10:43;;;;;;;;;;;22.00;99.90;;;;;;5091949;28;19915;-71
2022/09/29 06:13:10;;;;;;;;;;;21.80;99.90;;;;;;5109743;28;20100;-70
2022/09/29 06:15:37;;;;;;;;;;;21.50;99.90;;;;;;5098882;28;20497;-70
2022/09/29 06:18:03;;;;;;;;;;;21.10;99.90;;;;;;5110832;28;20355;-72
2022/09/29 06:20:32;;;;;;;;;;;20.70;99.90;;;;;;5107874;28;20387;-70
2022/09/29 06:22:58;;;;;;;;;;;20.30;99.90;;;;;;5109816;28;20372;-68
2022/09/29 06:25:25;;;;;;;;;;;20.00;99.90;;;;;;5105532;28;20333;-71
2022/09/29 06:27:52;;;;;;;;;;;19.80;99.90;;;;;;5110012;28;20006;-71
2022/09/29 06:30:18;;;;;;;;;;;19.90;99.90;;;;;;5112065;28;19904;-71
2022/09/29 06:32:45;;;;;;;;;;;20.20;99.90;;;;;;5114238;28;19920;-69
2022/09/29 06:37:57;;;;;;;;;;;20.20;99.90;;;;;;5114923;28;19958;-70
2022/09/29 06:40:26;;;;;;;;;;;19.90;99.90;;;;;;5114821;28;19964;-71
2022/09/29 06:42:52;;;;;;;;;;;19.70;99.90;;;;;;5114268;28;19962;-72
2022/09/29 06:45:19;;;;;;;;;;;19.40;99.90;;;;;;5094925;28;19965;-71
2022/09/29 06:47:46;;;;;;;;;;;19.20;99.90;;;;;;5113692;28;19912;-72
2022/09/29 06:50:12;;;;;;;;;;;18.90;99.90;;;;;;5113083;28;19960;-71
2022/09/29 06:52:39;;;;;;;;;;;18.50;99.90;;;;;;5113643;28;19920;-71
2022/09/29 06:55:06;;;;;;;;;;;18.30;99.90;;;;;;5109438;28;19923;-71
2022/09/29 06:57:33;;;;;;;;;;;18.10;99.90;;;;;;5112848;28;19915;-72
2022/09/29 06:59:59;;;;;;;;;;;17.90;99.90;;;;;;5113332;28;19912;-70
2022/09/29 07:02:26;;;;;;;;;;;17.70;99.90;;;;;;5112887;28;19919;-70
2022/09/29 07:04:53;;;;;;;;;;;17.60;99.90;;;;;;5111806;28;19960;-70
2022/09/29 07:07:19;;;;;;;;;;;17.50;99.90;;;;;;5110804;28;19916;-75
2022/09/29 07:09:46;;;;;;;;;;;17.40;99.90;;;;;;5113912;28;19942;-70
2022/09/29 07:12:13;;;;;;;;;;;17.40;99.90;;;;;;5112740;28;19919;-73
2022/09/29 07:14:39;;;;;;;;;;;17.40;99.90;;;;;;5101353;28;19923;-73
2022/09/29 07:17:08;;;;;;;;;;;17.40;99.90;;;;;;5109071;28;19908;-73
2022/09/29 07:19:34;;;;;;;;;;;17.50;99.90;;;;;;5112093;28;20383;-71
2022/09/29 07:22:01;;;;;;;;;;;17.40;99.90;;;;;;5113044;28;20381;-72
2022/09/29 07:24:28;;;;;;;;;;;17.40;99.90;;;;;;5110005;28;19912;-74
2022/09/29 07:26:54;;;;;;;;;;;17.40;99.90;;;;;;5093324;28;19911;-74
2022/09/29 07:29:24;;;;;;;;;;;17.40;99.90;;;;;;5113320;28;19914;-75
2022/09/29 07:31:51;;;;;;;;;;;17.40;99.90;;;;;;5112595;28;19908;-72
2022/09/29 07:34:18;;;;;;;;;;;17.40;99.90;;;;;;5107202;28;19953;-73
2022/09/29 07:36:45;;;;;;;;;;;17.40;99.90;;;;;;5110284;28;20274;-74
2022/09/29 07:39:12;;;;;;;;;;;17.30;99.90;;;;;;5112673;28;19919;-71
2022/09/29 07:41:38;;;;;;;;;;;17.40;99.90;;;;;;5090438;28;20298;-69
2022/09/29 07:44:05;;;;;;;;;;;17.30;99.90;;;;;;5109810;28;19912;-72
2022/09/29 07:46:32;;;;;;;;;;;17.30;99.90;;;;;;5111463;28;20423;-72
2022/09/29 07:48:58;;;;;;;;;;;17.20;99.90;;;;;;5110125;28;19908;-73
2022/09/29 07:51:25;;;;;;;;;;;17.20;99.90;;;;;;5113545;28;19908;-71
2022/09/29 07:53:52;;;;;;;;;;;17.10;99.90;;;;;;5091952;28;19975;-74
2022/09/29 07:56:20;;;;;;;;;;;17.20;99.90;;;;;;5107565;28;20375;-72
2022/09/29 07:58:48;;;;;;;;;;;17.20;99.90;;;;;;5111641;28;19912;-70
2022/09/29 08:01:15;;;;;;;;;;;17.20;99.90;;;;;;5106674;28;19926;-71
2022/09/29 08:03:46;;;;;;;;;;;17.20;99.90;;;;;;5108005;28;20380;-70
2022/09/29 08:06:12;;;;;;;;;;;17.30;99.90;;;;;;5093104;28;20003;-70
2022/09/29 08:08:40;;;;;;;;;;;17.30;99.90;;;;;;5113180;28;20428;-71
2022/09/29 08:11:08;;;;;;;;;;;17.30;99.90;;;;;;5103946;28;19995;-70
2022/09/29 08:13:36;;;;;;;;;;;17.30;99.90;;;;;;5074732;28;19920;-69
2022/09/29 08:16:07;;;;;;;;;;;17.30;99.90;;;;;;5092924;28;19920;-71
2022/09/29 08:18:34;;;;;;;;;;;17.30;99.90;;;;;;5112202;28;19911;-71
2022/09/29 08:21:01;;;;;;;;;;;17.30;99.90;;;;;;5100885;28;19941;-70
2022/09/29 08:23:28;;;;;;;;;;;17.30;99.90;;;;;;5103117;28;20352;-71
2022/09/29 08:26:01;;;;;;;;;;;17.30;99.90;;;;;;5107840;28;19916;-71
2022/09/29 08:28:29;;;;;;;;;;;17.20;99.90;;;;;;5105938;28;19912;-70
2022/09/29 08:30:56;;;;;;;;;;;17.20;99.90;;;;;;5103961;28;19966;-72
2022/09/29 08:33:22;;;;;;;;;;;17.20;99.90;;;;;;5108123;28;20003;-72
2022/09/29 08:35:58;;;;;;;;;;;17.10;99.90;;;;;;5105880;28;20006;-71
2022/09/29 08:38:26;;;;;;;;;;;17.10;99.90;;;;;;5106761;28;19920;-73
2022/09/29 08:40:56;;;;;;;;;;;17.20;99.90;;;;;;5091341;28;19916;-72
2022/09/29 08:43:25;;;;;;;;;;;17.20;99.90;;;;;;5112384;22;20362;-71
2022/09/29 08:45:59;;;;;;;;;;;17.20;99.90;;;;;;5095970;28;19916;-72
2022/09/29 08:48:28;;;;;;;;;;;17.20;99.90;;;;;;5112107;28;19937;-71
2022/09/29 08:50:57;;;;;;;;;;;17.10;99.90;;;;;;5093919;28;20411;-72
2022/09/29 08:53:26;;;;;;;;;;;17.10;99.90;;;;;;5106936;28;19919;-71
2022/09/29 08:56:04;;;;;;;;;;;16.90;99.90;;;;;;5111323;28;19916;-72
2022/09/29 08:58:31;;;;;;;;;;;17.00;99.90;;;;;;5093471;28;20318;-72
2022/09/29 09:01:06;;;;;;;;;;;16.90;99.90;;;;;;5112134;28;20011;-74
2022/09/29 09:03:55;;;;;;;;;;;16.90;99.90;;;;;;5110657;28;19919;-71
2022/09/29 09:06:35;;;;;;;;;;;16.90;99.90;;;;;;5057861;28;19923;-71
2022/09/29 09:09:05;;;;;;;;;;;16.90;99.90;;;;;;5111233;28;19912;-71
2022/09/29 09:11:49;;;;;;;;;;;16.90;99.90;;;;;;5112787;28;19915;-75
2022/09/29 09:14:36;;;;;;;;;;;16.90;99.90;;;;;;5112454;28;20002;-71
2022/09/29 09:17:04;;;;;;;;;;;16.90;99.90;;;;;;5112545;28;19939;-70
2022/09/29 09:19:39;;;;;;;;;;;16.90;99.90;;;;;;5084831;28;19916;-72
2022/09/29 09:22:21;;;;;;;;;;;16.80;99.90;;;;;;5098387;28;19920;-72
2022/09/29 09:24:55;;;;;;;;;;;16.70;99.90;;;;;;5061243;28;19966;-72
2022/09/29 09:27:25;;;;;;;;;;;16.60;99.90;;;;;;5089394;28;19947;-70
2022/09/29 09:29:58;;;;;;;;;;;16.50;99.90;;;;;;5109424;28;19957;-70
2022/09/29 09:32:27;;;;;;;;;;;16.40;99.90;;;;;;5109757;28;20240;-71
2022/09/29 09:34:54;;;;;;;;;;;16.40;99.90;;;;;;5107989;28;19908;-69
2022/09/29 09:37:31;;;;;;;;;;;16.30;99.90;;;;;;5103883;28;19907;-71
2022/09/29 09:40:01;;;;;;;;;;;16.30;99.90;;;;;;5111902;28;19934;-70
2022/09/29 09:42:34;;;;;;;;;;;16.20;99.90;;;;;;5109576;28;19927;-70
2022/09/29 09:45:27;;;;;;;;;;;16.20;99.90;;;;;;5104716;28;19927;-70
2022/09/29 09:47:58;;;;;;;;;;;16.10;99.90;;;;;;5105159;28;19911;-70
2022/09/29 09:50:25;;;;;;;;;;;16.00;99.90;;;;;;5111845;28;19916;-68
2022/09/29 09:52:54;;;;;;;;;;;16.00;99.90;;;;;;5111703;28;19912;-70
2022/09/29 09:55:23;;;;;;;;;;;16.00;99.90;;;;;;5111511;28;19908;-69
2022/09/29 09:58:05;;;;;;;;;;;16.10;99.90;;;;;;5111570;28;19961;-70
2022/09/29 10:00:54;;;;;;;;;;;16.20;99.90;;;;;;5109274;27;19915;-68
2022/09/29 10:03:20;;;;;;;;;;;16.10;99.90;;;;;;5106160;28;19930;-69
2022/09/29 10:05:48;;;;;;;;;;;16.20;99.90;;;;;;5100824;27;19916;-72
2022/09/29 10:08:24;;;;;;;;;;;16.20;99.90;;;;;;5108622;28;19912;-66
2022/09/29 10:10:51;;;;;;;;;;;16.20;99.90;;;;;;5106806;28;19911;-70
2022/09/29 10:13:18;;;;;;;;;;;16.10;99.90;;;;;;5110412;28;20282;-66
2022/09/29 10:15:45;;;;;;;;;;;16.10;99.90;;;;;;5109101;28;19915;-68
2022/09/29 10:18:20;;;;;;;;;;;16.00;99.90;;;;;;5109832;28;19912;-71
2022/09/29 10:20:47;;;;;;;;;;;16.00;99.90;;;;;;5092195;28;20022;-69
2022/09/29 10:23:24;;;;;;;;;;;16.10;99.90;;;;;;5108432;28;19919;-69
2022/09/29 10:25:56;;;;;;;;;;;16.00;99.90;;;;;;5109334;28;19999;-68
2022/09/29 10:28:24;;;;;;;;;;;16.00;99.90;;;;;;5110344;28;20374;-71
2022/09/29 10:30:53;;;;;;;;;;;16.00;99.90;;;;;;5109038;28;19939;-72
2022/09/29 10:33:22;;;;;;;;;;;16.10;99.90;;;;;;5104101;28;20023;-70
2022/09/29 10:35:51;;;;;;;;;;;16.10;99.90;;;;;;5106913;28;19916;-71
2022/09/29 10:38:23;;;;;;;;;;;16.20;99.90;;;;;;5091064;28;20388;-69
2022/09/29 10:40:57;;;;;;;;;;;16.10;99.90;;;;;;5109276;28;20260;-70
2022/09/29 10:43:32;;;;;;;;;;;16.00;99.90;;;;;;5107775;28;19927;-70
2022/09/29 10:45:58;;;;;;;;;;;15.90;99.90;;;;;;5110810;28;19912;-68
2022/09/29 10:48:26;;;;;;;;;;;15.90;99.90;;;;;;5110046;28;19915;-69
2022/09/29 10:50:54;;;;;;;;;;;15.90;99.90;;;;;;5110703;28;19980;-69
2022/09/29 10:53:27;;;;;;;;;;;15.90;99.90;;;;;;5110114;28;19923;-72
2022/09/29 10:55:55;;;;;;;;;;;16.00;99.90;;;;;;5098253;28;19924;-71
2022/09/29 10:58:28;;;;;;;;;;;16.00;99.90;;;;;;5109994;28;19934;-71
2022/09/29 11:01:09;;;;;;;;;;;15.90;99.90;;;;;;5097483;28;20010;-71
2022/09/29 11:03:38;;;;;;;;;;;15.90;99.90;;;;;;5092025;28;19919;-71
2022/09/29 11:06:07;;;;;;;;;;;15.90;99.90;;;;;;5110731;28;19907;-71
2022/09/29 11:08:53;;;;;;;;;;;15.70;99.90;;;;;;5092069;28;20407;-70
2022/09/29 11:11:19;;;;;;;;;;;15.80;99.90;;;;;;5092189;28;20167;-72
2022/09/29 11:13:46;;;;;;;;;;;15.70;99.90;;;;;;5110409;28;19912;-72
2022/09/29 11:16:15;;;;;;;;;;;15.60;99.90;;;;;;5092758;28;20527;-71
2022/09/29 11:18:47;;;;;;;;;;;15.60;99.90;;;;;;5114337;28;20364;-72
2022/09/29 11:21:14;;;;;;;;;;;15.60;99.90;;;;;;5114156;28;19912;-71
2022/09/29 11:23:59;;;;;;;;;;;15.50;99.90;;;;;;5113189;28;19926;-68
2022/09/29 11:26:45;;;;;;;;;;;15.50;99.90;;;;;;5114105;28;19958;-70
2022/09/29 11:29:27;;;;;;;;;;;15.50;99.90;;;;;;5114295;28;19981;-68
2022/09/29 11:31:57;;;;;;;;;;;15.50;99.90;;;;;;5095610;28;19911;-70
2022/09/29 11:34:51;;;;;;;;;;;15.50;99.90;;;;;;5114171;28;19911;-69
2022/09/29 11:37:18;;;;;;;;;;;15.40;99.90;;;;;;5114388;28;19912;-68
2022/09/29 11:39:52;;;;;;;;;;;15.40;99.90;;;;;;5095475;28;19915;-71
2022/09/29 11:42:25;;;;;;;;;;;15.40;99.90;;;;;;5112974;28;20320;-71
2022/09/29 11:45:02;;;;;;;;;;;15.40;99.90;;;;;;5113408;28;20429;-70
2022/09/29 11:47:52;;;;;;;;;;;15.40;99.90;;;;;;5113458;28;19918;-70
2022/09/29 11:50:37;;;;;;;;;;;15.40;99.90;;;;;;5111624;28;19995;-70
2022/09/29 11:53:06;;;;;;;;;;;15.40;99.90;;;;;;5113698;28;19947;-70
2022/09/29 11:55:33;;;;;;;;;;;15.50;99.90;;;;;;5113307;28;19919;-69
2022/09/29 11:58:00;;;;;;;;;;;15.50;99.90;;;;;;5114018;28;19915;-70
2022/09/29 12:00:45;;;;;;;;;;;15.50;99.90;;;;;;5095645;28;19930;-70
2022/09/29 12:03:27;;;;;;;;;;;15.50;99.90;;;;;;5113310;28;20429;-70
2022/09/29 12:05:58;;;;;;;;;;;15.50;99.90;;;;;;5093428;28;20314;-70
2022/09/29 12:08:27;;;;;;;;;;;15.60;99.90;;;;;;5111649;28;19915;-71
2022/09/29 12:11:03;;;;;;;;;;;15.60;99.90;;;;;;5095266;28;19911;-71
2022/09/29 12:13:50;;;;;;;;;;;15.60;99.90;;;;;;5112526;28;19914;-71
2022/09/29 12:16:19;;;;;;;;;;;15.70;99.90;;;;;;5112595;28;20371;-72
2022/09/29 12:19:12;;;;;;;;;;;15.70;99.90;;;;;;5111624;28;19922;-69
2022/09/29 12:21:41;;;;;;;;;;;15.70;99.90;;;;;;5106957;28;19919;-69
2022/09/29 12:24:20;;;;;;;;;;;15.70;99.90;;;;;;5111130;28;20376;-71
2022/09/29 12:26:48;;;;;;;;;;;15.70;99.90;;;;;;5092674;28;19918;-67
2022/09/29 12:29:21;;;;;;;;;;;15.80;99.90;;;;;;5110567;28;19964;-67
2022/09/29 12:31:49;;;;;;;;;;;15.70;99.90;;;;;;5111014;28;19914;-67
2022/09/29 12:34:19;;;;;;;;;;;15.80;99.90;;;;;;5112416;28;19915;-69
2022/09/29 12:37:01;;;;;;;;;;;15.80;99.90;;;;;;5111075;28;19912;-68
2022/09/29 12:39:37;;;;;;;;;;;15.90;99.90;;;;;;5111043;28;19912;-68
2022/09/29 12:42:15;;;;;;;;;;;15.90;99.90;;;;;;5111753;28;19919;-68
2022/09/29 12:44:49;;;;;;;;;;;15.90;99.90;;;;;;5111633;28;19972;-70
2022/09/29 12:47:22;;;;;;;;;;;16.00;99.90;;;;;;5110492;28;20356;-71
2022/09/29 12:50:10;;;;;;;;;;;15.90;99.90;;;;;;5112084;28;19908;-70
2022/09/29 12:53:06;;;;;;;;;;;15.90;99.90;;;;;;5113335;28;19964;-70
2022/09/29 12:55:53;;;;;;;;;;;15.90;99.90;;;;;;5073753;28;19939;-67
2022/09/29 12:58:40;;;;;;;;;;;15.90;99.90;;;;;;5112689;28;20360;-71
2022/09/29 13:01:20;;;;;;;;;;;15.80;99.90;;;;;;5113281;28;19908;-71
2022/09/29 13:04:13;;;;;;;;;;;15.90;99.90;;;;;;5113615;28;20052;-69
2022/09/29 13:06:40;;;;;;;;;;;15.80;99.90;;;;;;5054502;28;19923;-70
2022/09/29 13:09:06;;;;;;;;;;;15.80;99.90;;;;;;5093114;28;19912;-70
2022/09/29 13:11:33;;;;;;;;;;;15.80;99.90;;;;;;5094208;28;19978;-71
2022/09/29 13:14:02;;;;;;;;;;;15.80;99.90;;;;;;5094442;28;19961;-72
2022/09/29 13:16:42;;;;;;;;;;;15.80;99.90;;;;;;5112673;28;19915;-70
2022/09/29 13:19:20;;;;;;;;;;;15.90;99.90;;;;;;5112654;28;19959;-71
2022/09/29 13:22:05;;;;;;;;;;;15.90;99.90;;;;;;5113137;28;19912;-70
2022/09/29 13:24:35;;;;;;;;;;;15.90;99.90;;;;;;5094503;28;19916;-70
2022/09/29 13:27:02;;;;;;;;;;;15.80;99.90;;;;;;5112564;28;19915;-70
2022/09/29 13:29:30;;;;;;;;;;;15.80;99.90;;;;;;5112224;28;20393;-70
2022/09/29 13:31:57;;;;;;;;;;;15.70;99.90;;;;;;5112460;28;19908;-69
2022/09/29 13:34:24;;;;;;;;;;;15.70;99.90;;;;;;5112902;28;19908;-70
2022/09/29 13:36:52;;;;;;;;;;;15.60;99.90;;;;;;5112491;28;19918;-69
2022/09/29 13:39:26;;;;;;;;;;;15.60;99.90;;;;;;5112042;28;19922;-71
2022/09/29 13:41:56;;;;;;;;;;;15.60;99.90;;;;;;5112714;28;20260;-72
2022/09/29 13:44:27;;;;;;;;;;;15.60;99.90;;;;;;5112719;28;19943;-70
2022/09/29 13:46:55;;;;;;;;;;;15.60;99.90;;;;;;5112460;28;19908;-72
2022/09/29 13:49:27;;;;;;;;;;;15.60;99.90;;;;;;5112213;28;20375;-72
2022/09/29 13:51:59;;;;;;;;;;;15.60;99.90;;;;;;5112747;28;19916;-72
2022/09/29 13:54:27;;;;;;;;;;;15.60;99.90;;;;;;5112959;28;19911;-71
2022/09/29 13:57:12;;;;;;;;;;;15.60;99.90;;;;;;5112763;28;19968;-72
2022/09/29 13:59:43;;;;;;;;;;;15.60;99.90;;;;;;5112349;28;19926;-71
2022/09/29 14:02:28;;;;;;;;;;;15.70;99.90;;;;;;5111981;28;19919;-70
2022/09/29 14:04:55;;;;;;;;;;;15.70;99.90;;;;;;5112490;28;19987;-71
2022/09/29 14:07:40;;;;;;;;;;;15.70;99.90;;;;;;5112113;28;19912;-70
2022/09/29 14:10:23;;;;;;;;;;;15.70;99.90;;;;;;5112543;28;19914;-71
2022/09/29 14:12:56;;;;;;;;;;;15.70;99.90;;;;;;5111810;28;19911;-71
2022/09/29 14:15:24;;;;;;;;;;;15.70;99.90;;;;;;5112768;28;19915;-71
2022/09/29 14:17:55;;;;;;;;;;;15.70;99.90;;;;;;5093809;28;19912;-70
2022/09/29 14:20:27;;;;;;;;;;;15.70;99.90;;;;;;5112054;28;19907;-69
2022/09/29 14:22:56;;;;;;;;;;;15.70;99.90;;;;;;5111627;28;19927;-71
2022/09/29 14:25:30;;;;;;;;;;;15.60;99.90;;;;;;5111648;28;20005;-70
2022/09/29 14:27:57;;;;;;;;;;;15.70;99.90;;;;;;5112395;28;19915;-70
2022/09/29 14:30:34;;;;;;;;;;;15.70;99.90;;;;;;5112470;28;20271;-71
2022/09/29 14:33:19;;;;;;;;;;;15.60;99.90;;;;;;5111868;28;20010;-71
2022/09/29 14:35:46;;;;;;;;;;;15.60;99.90;;;;;;5093326;28;20291;-71
2022/09/29 14:38:32;;;;;;;;;;;15.50;99.90;;;;;;5111921;28;20003;-69